Time;durP1;ratioP1;P1;durP2;ratioP2;P2;SDS_P1;SDS_P2;PMS_P1;PMS_P2;Temp;Humidity;BMP_temperature;BMP_pressure;BME280_temperature;BME280_humidity;BME280_pressure;Samples;Min_cycle;Max_cycle;Signal;HPM_P1;HPM_P2
2022/04/06 00:00:42;;;;;;;;;;;;;;;;;;5007505;28;19956;-77
2022/04/06 00:03:08;;;;;;;;;;;;;;;;;;5005930;28;19937;-77
2022/04/06 00:05:34;;;;;;;;;;;;;;;;;;5009638;28;20019;-77
2022/04/06 00:08:01;;;;;;;;;;;;;;;;;;5008530;28;19960;-77
2022/04/06 00:10:28;;;;;;;;;;;;;;;;;;5015561;28;20415;-77
2022/04/06 00:12:54;;;;;;;;;;;;;;;;;;5017337;28;19953;-77
2022/04/06 00:15:20;;;;;;;;;;;;;;;;;;4996002;28;19976;-77
2022/04/06 00:17:47;;;;;;;;;;;;;;;;;;5002758;28;19953;-77
2022/04/06 00:20:14;;;;;;;;;;;;;;;;;;5023236;28;19953;-77
2022/04/06 00:22:41;;;;;;;;;;;;;;;;;;5010126;28;20370;-77
2022/04/06 00:25:07;;;;;;;;;;;;;;;;;;5013016;28;20030;-77
2022/04/06 00:27:33;;;;;;;;;;;;;;;;;;5013197;28;19933;-77
2022/04/06 00:29:59;;;;;;;;;;;;;;;;;;5011188;28;19949;-77
2022/04/06 00:32:26;;;;;;;;;;;;;;;;;;5007770;28;19956;-77
2022/04/06 00:37:37;;;;;;;;;;;;;;;;;;5014547;28;20315;-77
2022/04/06 00:40:03;;;;;;;;;;;;;;;;;;5002073;28;19925;-77
2022/04/06 00:42:29;;;;;;;;;;;;;;;;;;5003574;28;19949;-76
2022/04/06 00:44:55;;;;;;;;;;;;;;;;;;5010658;28;19945;-76
2022/04/06 00:47:22;;;;;;;;;;;;;;;;;;5012901;28;19956;-76
2022/04/06 00:49:48;;;;;;;;;;;;;;;;;;5008066;28;19991;-77
2022/04/06 00:52:14;;;;;;;;;;;;;;;;;;5004452;28;19946;-77
2022/04/06 00:54:40;;;;;;;;;;;;;;;;;;5016292;28;19961;-77
2022/04/06 00:57:07;;;;;;;;;;;;;;;;;;5005347;28;19976;-75
2022/04/06 00:59:33;;;;;;;;;;;;;;;;;;5006795;28;19961;-75
2022/04/06 01:02:00;;;;;;;;;;;;;;;;;;5016540;28;20318;-75
2022/04/06 01:04:26;;;;;;;;;;;;;;;;;;5010696;28;20396;-76
2022/04/06 01:06:52;;;;;;;;;;;;;;;;;;5002987;28;19967;-76
2022/04/06 01:09:18;;;;;;;;;;;;;;;;;;5001793;28;20441;-76
2022/04/06 01:11:44;;;;;;;;;;;;;;;;;;5026545;28;19969;-76
2022/04/06 01:14:11;;;;;;;;;;;;;;;;;;5015178;28;19917;-76
2022/04/06 01:16:37;;;;;;;;;;;;;;;;;;5018242;28;19960;-76
2022/04/06 01:19:03;;;;;;;;;;;;;;;;;;5004042;28;19965;-75
2022/04/06 01:21:30;;;;;;;;;;;;;;;;;;4995001;28;19949;-76
2022/04/06 01:23:56;;;;;;;;;;;;;;;;;;5011306;28;19960;-76
2022/04/06 01:26:22;;;;;;;;;;;;;;;;;;5014754;28;19959;-76
2022/04/06 01:28:49;;;;;;;;;;;;;;;;;;5013829;28;19961;-77
2022/04/06 01:31:15;;;;;;;;;;;;;;;;;;5023336;28;19979;-76
2022/04/06 01:33:41;;;;;;;;;;;;;;;;;;5020961;28;19948;-77
2022/04/06 01:36:07;;;;;;;;;;;;;;;;;;5006052;28;19965;-76
2022/04/06 01:38:34;;;;;;;;;;;;;;;;;;5008832;28;19957;-76
2022/04/06 01:41:00;;;;;;;;;;;;;;;;;;5000305;28;19950;-76
2022/04/06 01:43:27;;;;;;;;;;;;;;;;;;5017062;28;20304;-76
2022/04/06 01:45:53;;;;;;;;;;;;;;;;;;5013726;28;19952;-76
2022/04/06 01:48:19;;;;;;;;;;;;;;;;;;5004198;28;19960;-76
2022/04/06 01:53:30;;;;;;;;;;;;;;;;;;4996027;28;20262;-77
2022/04/06 01:55:56;;;;;;;;;;;;;;;;;;5010468;28;19960;-76
2022/04/06 01:58:23;;;;;;;;;;;;;;;;;;5004582;28;19975;-77
2022/04/06 02:00:49;;;;;;;;;;;;;;;;;;5000574;28;19992;-77
2022/04/06 02:03:15;;;;;;;;;;;;;;;;;;5009857;28;19971;-76
2022/04/06 02:05:41;;;;;;;;;;;;;;;;;;5015312;28;19956;-76
2022/04/06 02:08:08;;;;;;;;;;;;;;;;;;4996036;28;19964;-76
2022/04/06 02:10:34;;;;;;;;;;;;;;;;;;5011271;28;19952;-77
2022/04/06 02:13:00;;;;;;;;;;;;;;;;;;4990205;28;19965;-76
2022/04/06 02:15:30;;;;;;;;;;;;;;;;;;5007813;28;19953;-76
2022/04/06 02:17:56;;;;;;;;;;;;;;;;;;5000949;28;19963;-76
2022/04/06 02:20:22;;;;;;;;;;;;;;;;;;5002693;28;25561;-76
2022/04/06 02:22:48;;;;;;;;;;;;;;;;;;5004340;28;20348;-75
2022/04/06 02:25:15;;;;;;;;;;;;;;;;;;5010992;28;19960;-75
2022/04/06 02:27:41;;;;;;;;;;;;;;;;;;5010520;28;19929;-77
2022/04/06 02:30:07;;;;;;;;;;;;;;;;;;5001834;28;20040;-75
2022/04/06 02:32:33;;;;;;;;;;;;;;;;;;5008580;28;20004;-76
2022/04/06 02:34:59;;;;;;;;;;;;;;;;;;5010581;28;19955;-76
2022/04/06 02:37:26;;;;;;;;;;;;;;;;;;5006692;28;19975;-76
2022/04/06 02:39:52;;;;;;;;;;;;;;;;;;5020201;28;19964;-76
2022/04/06 02:42:18;;;;;;;;;;;;;;;;;;5009989;28;19953;-76
2022/04/06 02:44:44;;;;;;;;;;;;;;;;;;5015125;28;20008;-76
2022/04/06 02:47:10;;;;;;;;;;;;;;;;;;5007504;28;19954;-76
2022/04/06 02:49:37;;;;;;;;;;;;;;;;;;5017068;28;19949;-76
2022/04/06 02:52:04;;;;;;;;;;;;;;;;;;5020309;28;19955;-76
2022/04/06 02:54:30;;;;;;;;;;;;;;;;;;4998912;28;20371;-76
2022/04/06 02:56:56;;;;;;;;;;;;;;;;;;5009861;28;19948;-77
2022/04/06 02:59:22;;;;;;;;;;;;;;;;;;5018718;28;20042;-77
2022/04/06 03:01:49;;;;;;;;;;;;;;;;;;5017787;28;19952;-77
2022/04/06 03:04:15;;;;;;;;;;;;;;;;;;5001416;28;19957;-77
2022/04/06 03:06:41;;;;;;;;;;;;;;;;;;5013185;28;19913;-77
2022/04/06 03:09:07;;;;;;;;;;;;;;;;;;5002025;28;19956;-76
2022/04/06 03:11:34;;;;;;;;;;;;;;;;;;5003368;28;20019;-75
2022/04/06 03:14:00;;;;;;;;;;;;;;;;;;4998110;28;20341;-76
2022/04/06 03:16:26;;;;;;;;;;;;;;;;;;4998710;28;19976;-76
2022/04/06 03:18:52;;;;;;;;;;;;;;;;;;4994771;28;20372;-78
2022/04/06 03:21:22;;;;;;;;;;;;;;;;;;4994478;28;19941;-81
2022/04/06 03:23:55;;;;;;;;;;;;;;;;;;4984957;28;19925;-81
2022/04/06 03:26:24;;;;;;;;;;;;;;;;;;4971393;28;19921;-77
2022/04/06 03:28:53;;;;;;;;;;;;;;;;;;5013987;28;19930;-76
2022/04/06 03:31:25;;;;;;;;;;;;;;;;;;4983351;28;19917;-77
2022/04/06 03:33:57;;;;;;;;;;;;;;;;;;5001984;28;20011;-77
2022/04/06 03:36:39;;;;;;;;;;;;;;;;;;4986768;28;20012;-77
2022/04/06 03:39:05;;;;;;;;;;;;;;;;;;4994002;28;20589;-76
2022/04/06 03:41:32;;;;;;;;;;;;;;;;;;4999886;28;19926;-76
2022/04/06 03:43:58;;;;;;;;;;;;;;;;;;4997282;28;19926;-76
2022/04/06 03:46:24;;;;;;;;;;;;;;;;;;4994064;28;19957;-77
2022/04/06 03:48:50;;;;;;;;;;;;;;;;;;5001414;28;19961;-77
2022/04/06 03:51:20;;;;;;;;;;;;;;;;;;4999233;28;19957;-77
2022/04/06 03:53:46;;;;;;;;;;;;;;;;;;5012519;28;19968;-77
2022/04/06 03:56:12;;;;;;;;;;;;;;;;;;5000065;28;19968;-77
2022/04/06 03:58:56;;;;;;;;;;;;;;;;;;4989297;28;20062;-78
2022/04/06 04:01:23;;;;;;;;;;;;;;;;;;4963090;28;24423;-76
2022/04/06 04:03:49;;;;;;;;;;;;;;;;;;5002438;28;20329;-76
2022/04/06 04:06:15;;;;;;;;;;;;;;;;;;5008843;28;20447;-77
2022/04/06 04:08:41;;;;;;;;;;;;;;;;;;4997444;28;20004;-76
2022/04/06 04:11:08;;;;;;;;;;;;;;;;;;4996930;28;19965;-76
2022/04/06 04:13:34;;;;;;;;;;;;;;;;;;4996183;28;20288;-76
2022/04/06 04:16:01;;;;;;;;;;;;;;;;;;4995144;28;19917;-76
2022/04/06 04:18:31;;;;;;;;;;;;;;;;;;4992307;28;20003;-77
2022/04/06 04:23:49;;;;;;;;;;;;;;;;;;5013089;28;19929;-77
2022/04/06 04:26:15;;;;;;;;;;;;;;;;;;4995884;28;19954;-77
2022/04/06 04:28:41;;;;;;;;;;;;;;;;;;4992253;28;19956;-77
2022/04/06 04:31:08;;;;;;;;;;;;;;;;;;5022162;28;19981;-77
2022/04/06 04:33:34;;;;;;;;;;;;;;;;;;5020549;28;20007;-76
2022/04/06 04:36:00;;;;;;;;;;;;;;;;;;4997317;28;20431;-77
2022/04/06 04:38:26;;;;;;;;;;;;;;;;;;5012035;28;19964;-77
2022/04/06 04:40:54;;;;;;;;;;;;;;;;;;5003049;28;19952;-77
2022/04/06 04:43:22;;;;;;;;;;;;;;;;;;5012578;28;19966;-77
2022/04/06 04:45:48;;;;;;;;;;;;;;;;;;5014923;28;20042;-77
2022/04/06 04:48:14;;;;;;;;;;;;;;;;;;5000306;28;20031;-76
2022/04/06 04:50:40;;;;;;;;;;;;;;;;;;5004035;28;19957;-77
2022/04/06 04:53:07;;;;;;;;;;;;;;;;;;5015664;28;19953;-77
2022/04/06 04:55:33;;;;;;;;;;;;;;;;;;4997008;28;19945;-77
2022/04/06 04:57:59;;;;;;;;;;;;;;;;;;5013670;28;19968;-78
2022/04/06 05:00:25;;;;;;;;;;;;;;;;;;5011688;28;20010;-77
2022/04/06 05:02:51;;;;;;;;;;;;;;;;;;5014852;28;20374;-77
2022/04/06 05:05:18;;;;;;;;;;;;;;;;;;5010528;28;19918;-76
2022/04/06 05:07:44;;;;;;;;;;;;;;;;;;5003138;28;19953;-77
2022/04/06 05:10:10;;;;;;;;;;;;;;;;;;5002669;28;19976;-76
2022/04/06 05:12:36;;;;;;;;;;;;;;;;;;5024095;28;19960;-77
2022/04/06 05:15:04;;;;;;;;;;;;;;;;;;4996750;28;19956;-77
2022/04/06 05:17:30;;;;;;;;;;;;;;;;;;5012740;28;20214;-77
2022/04/06 05:19:56;;;;;;;;;;;;;;;;;;5004362;28;19961;-77
2022/04/06 05:22:22;;;;;;;;;;;;;;;;;;4997023;28;20351;-77
2022/04/06 05:24:49;;;;;;;;;;;;;;;;;;5004985;28;19957;-77
2022/04/06 05:27:15;;;;;;;;;;;;;;;;;;4991182;28;19925;-77
2022/04/06 05:29:42;;;;;;;;;;;;;;;;;;5008244;28;19952;-77
2022/04/06 05:32:08;;;;;;;;;;;;;;;;;;5019522;28;19959;-76
2022/04/06 05:34:35;;;;;;;;;;;;;;;;;;5012116;28;19964;-77
2022/04/06 05:37:01;;;;;;;;;;;;;;;;;;5000659;28;19989;-76
2022/04/06 05:39:27;;;;;;;;;;;;;;;;;;5010195;28;19968;-77
2022/04/06 05:41:55;;;;;;;;;;;;;;;;;;5004341;28;20197;-77
2022/04/06 05:44:22;;;;;;;;;;;;;;;;;;5003532;28;20770;-77
2022/04/06 05:46:48;;;;;;;;;;;;;;;;;;5003891;28;19968;-78
2022/04/06 05:49:14;;;;;;;;;;;;;;;;;;5000844;28;20326;-77
2022/04/06 05:51:40;;;;;;;;;;;;;;;;;;5020023;28;19913;-78
2022/04/06 05:54:07;;;;;;;;;;;;;;;;;;5010468;28;19953;-77
2022/04/06 05:56:33;;;;;;;;;;;;;;;;;;5009827;28;19953;-76
2022/04/06 05:58:59;;;;;;;;;;;;;;;;;;4999777;28;20425;-76
2022/04/06 06:01:25;;;;;;;;;;;;;;;;;;5011376;28;19962;-76
2022/04/06 06:03:52;;;;;;;;;;;;;;;;;;5020449;28;20345;-76
2022/04/06 06:06:18;;;;;;;;;;;;;;;;;;5006094;28;19968;-76
2022/04/06 06:08:46;;;;;;;;;;;;;;;;;;5014871;28;19941;-76
2022/04/06 06:11:12;;;;;;;;;;;;;;;;;;5012227;28;19972;-77
2022/04/06 06:13:38;;;;;;;;;;;;;;;;;;5010997;28;19957;-78
2022/04/06 06:16:05;;;;;;;;;;;;;;;;;;4994414;28;19953;-77
2022/04/06 06:18:31;;;;;;;;;;;;;;;;;;5001826;28;19984;-77
2022/04/06 06:21:00;;;;;;;;;;;;;;;;;;4996783;28;19957;-77
2022/04/06 06:23:27;;;;;;;;;;;;;;;;;;4993636;28;20409;-79
2022/04/06 06:25:53;;;;;;;;;;;;;;;;;;4995132;28;19988;-77
2022/04/06 06:28:19;;;;;;;;;;;;;;;;;;4997793;28;19976;-77
2022/04/06 06:30:45;;;;;;;;;;;;;;;;;;4997964;28;19964;-77
2022/04/06 06:33:13;;;;;;;;;;;;;;;;;;4999326;28;19933;-76
2022/04/06 06:35:39;;;;;;;;;;;;;;;;;;5003197;28;19918;-76
2022/04/06 06:38:06;;;;;;;;;;;;;;;;;;5007063;28;20431;-77
2022/04/06 06:40:32;;;;;;;;;;;;;;;;;;5010470;28;19964;-75
2022/04/06 06:42:58;;;;;;;;;;;;;;;;;;5012121;28;19967;-78
2022/04/06 06:45:24;;;;;;;;;;;;;;;;;;5003019;28;19961;-78
2022/04/06 06:53:23;;;;;;;;;;;;;;;;;;5004877;28;19918;-76
2022/04/06 06:55:50;;;;;;;;;;;;;;;;;;5005863;28;19956;-78
2022/04/06 06:58:16;;;;;;;;;;;;;;;;;;5009440;28;19965;-78
2022/04/06 07:00:42;;;;;;;;;;;;;;;;;;4994642;28;19953;-77
2022/04/06 07:03:08;;;;;;;;;;;;;;;;;;4995611;28;19961;-77
2022/04/06 07:05:34;;;;;;;;;;;;;;;;;;5002016;28;19953;-77
2022/04/06 07:08:01;;;;;;;;;;;;;;;;;;5006258;28;19933;-77
2022/04/06 07:10:29;;;;;;;;;;;;;;;;;;5004961;28;19956;-77
2022/04/06 07:12:55;;;;;;;;;;;;;;;;;;5008701;28;20002;-78
2022/04/06 07:15:22;;;;;;;;;;;;;;;;;;5007684;28;20050;-77
2022/04/06 07:17:48;;;;;;;;;;;;;;;;;;5004597;28;19921;-78
2022/04/06 07:20:15;;;;;;;;;;;;;;;;;;5009116;28;19918;-77
2022/04/06 07:22:42;;;;;;;;;;;;;;;;;;4998182;28;19924;-77
2022/04/06 07:25:08;;;;;;;;;;;;;;;;;;5013676;28;19959;-77
2022/04/06 07:27:35;;;;;;;;;;;;;;;;;;5019319;28;19932;-77
2022/04/06 07:30:03;;;;;;;;;;;;;;;;;;4994664;28;19918;-77
2022/04/06 07:32:29;;;;;;;;;;;;;;;;;;5008387;28;19921;-77
2022/04/06 07:34:56;;;;;;;;;;;;;;;;;;5008991;28;19968;-77
2022/04/06 07:37:22;;;;;;;;;;;;;;;;;;5005445;28;19976;-78
2022/04/06 07:39:48;;;;;;;;;;;;;;;;;;5016426;28;19922;-78
2022/04/06 07:42:15;;;;;;;;;;;;;;;;;;5011987;28;19936;-77
2022/04/06 07:44:41;;;;;;;;;;;;;;;;;;5007284;28;20008;-77
2022/04/06 07:47:07;;;;;;;;;;;;;;;;;;5017584;28;19925;-77
2022/04/06 07:49:33;;;;;;;;;;;;;;;;;;5008919;28;19955;-77
2022/04/06 07:52:00;;;;;;;;;;;;;;;;;;5011958;28;20482;-77
2022/04/06 07:54:26;;;;;;;;;;;;;;;;;;5004415;28;20377;-78
2022/04/06 07:56:53;;;;;;;;;;;;;;;;;;5018572;28;20304;-77
2022/04/06 07:59:20;;;;;;;;;;;;;;;;;;5002198;28;19968;-78
2022/04/06 08:01:46;;;;;;;;;;;;;;;;;;5019914;28;20015;-78
2022/04/06 08:04:12;;;;;;;;;;;;;;;;;;5016517;28;19967;-77
2022/04/06 08:06:38;;;;;;;;;;;;;;;;;;5005881;28;19945;-77
2022/04/06 08:09:06;;;;;;;;;;;;;;;;;;5010528;28;19921;-77
2022/04/06 08:11:33;;;;;;;;;;;;;;;;;;4992966;28;19948;-78
2022/04/06 08:13:59;;;;;;;;;;;;;;;;;;5014062;28;19937;-78
2022/04/06 08:16:25;;;;;;;;;;;;;;;;;;5005120;28;20060;-78
2022/04/06 08:18:51;;;;;;;;;;;;;;;;;;5006982;28;19953;-77
2022/04/06 08:21:18;;;;;;;;;;;;;;;;;;5006814;28;19954;-78
2022/04/06 08:23:45;;;;;;;;;;;;;;;;;;4993095;28;19961;-77
2022/04/06 08:26:11;;;;;;;;;;;;;;;;;;4997304;28;20423;-77
2022/04/06 08:28:37;;;;;;;;;;;;;;;;;;5008210;28;20057;-77
2022/04/06 08:31:05;;;;;;;;;;;;;;;;;;5011943;28;19976;-77
2022/04/06 08:33:31;;;;;;;;;;;;;;;;;;4994865;28;19952;-78
2022/04/06 08:35:57;;;;;;;;;;;;;;;;;;5004371;28;20227;-77
2022/04/06 08:38:23;;;;;;;;;;;;;;;;;;4994560;28;19972;-77
2022/04/06 08:40:50;;;;;;;;;;;;;;;;;;5005518;28;20032;-77
2022/04/06 08:43:17;;;;;;;;;;;;;;;;;;5019098;28;19979;-78
2022/04/06 08:45:44;;;;;;;;;;;;;;;;;;5005358;28;19953;-77
2022/04/06 08:48:10;;;;;;;;;;;;;;;;;;4999912;28;19945;-76
2022/04/06 08:50:36;;;;;;;;;;;;;;;;;;5023712;28;19953;-77
2022/04/06 08:53:02;;;;;;;;;;;;;;;;;;5018320;28;19918;-77
2022/04/06 08:55:29;;;;;;;;;;;;;;;;;;5007592;28;19949;-77
2022/04/06 08:57:55;;;;;;;;;;;;;;;;;;4999438;28;19956;-78
2022/04/06 09:00:21;;;;;;;;;;;;;;;;;;5001251;28;19952;-77
2022/04/06 09:02:47;;;;;;;;;;;;;;;;;;5009030;28;19918;-77
2022/04/06 09:05:13;;;;;;;;;;;;;;;;;;4996219;28;20336;-77
2022/04/06 09:07:40;;;;;;;;;;;;;;;;;;5000998;28;19918;-78
2022/04/06 09:10:06;;;;;;;;;;;;;;;;;;5009717;28;20399;-77
2022/04/06 09:12:32;;;;;;;;;;;;;;;;;;5011604;28;20331;-77
2022/04/06 09:14:58;;;;;;;;;;;;;;;;;;5006950;28;19949;-77
2022/04/06 09:17:24;;;;;;;;;;;;;;;;;;5001607;28;20382;-77
2022/04/06 09:19:51;;;;;;;;;;;;;;;;;;5008439;28;19968;-78
2022/04/06 09:22:17;;;;;;;;;;;;;;;;;;5001746;28;19964;-77
2022/04/06 09:24:43;;;;;;;;;;;;;;;;;;5007137;28;19960;-77
2022/04/06 09:27:09;;;;;;;;;;;;;;;;;;5028411;28;19964;-77
2022/04/06 09:29:36;;;;;;;;;;;;;;;;;;4999221;28;19961;-77
2022/04/06 09:32:02;;;;;;;;;;;;;;;;;;5009304;28;20007;-78
2022/04/06 09:34:28;;;;;;;;;;;;;;;;;;5003120;28;20377;-77
2022/04/06 09:36:56;;;;;;;;;;;;;;;;;;5006640;28;19946;-77
2022/04/06 09:39:22;;;;;;;;;;;;;;;;;;4996364;28;19965;-78
2022/04/06 09:41:48;;;;;;;;;;;;;;;;;;5016686;28;19961;-77
2022/04/06 09:49:44;;;;;;;;;;;;;;;;;;5011027;28;20087;-78
2022/04/06 09:52:11;;;;;;;;;;;;;;;;;;5023102;28;19988;-77
2022/04/06 09:54:37;;;;;;;;;;;;;;;;;;5016311;28;20340;-77
2022/04/06 09:57:03;;;;;;;;;;;;;;;;;;5002951;28;19965;-78
2022/04/06 09:59:29;;;;;;;;;;;;;;;;;;5008016;28;19949;-77
2022/04/06 10:01:57;;;;;;;;;;;;;;;;;;5006334;28;19964;-77
2022/04/06 10:04:24;;;;;;;;;;;;;;;;;;4999178;28;19964;-77
2022/04/06 10:06:50;;;;;;;;;;;;;;;;;;5016089;28;19918;-77
2022/04/06 10:09:16;;;;;;;;;;;;;;;;;;5005928;28;19944;-77
2022/04/06 10:11:42;;;;;;;;;;;;;;;;;;5004797;28;20427;-77
2022/04/06 10:14:09;;;;;;;;;;;;;;;;;;5021015;28;19953;-77
2022/04/06 10:16:36;;;;;;;;;;;;;;;;;;5014759;28;19960;-77
2022/04/06 10:19:02;;;;;;;;;;;;;;;;;;5021365;28;19965;-78
2022/04/06 10:21:28;;;;;;;;;;;;;;;;;;5003070;28;19948;-77
2022/04/06 10:23:54;;;;;;;;;;;;;;;;;;5000198;28;19964;-77
2022/04/06 10:26:21;;;;;;;;;;;;;;;;;;5000475;28;19961;-77
2022/04/06 10:28:49;;;;;;;;;;;;;;;;;;4999821;28;19961;-77
2022/04/06 10:31:16;;;;;;;;;;;;;;;;;;5009970;28;20003;-77
2022/04/06 10:33:42;;;;;;;;;;;;;;;;;;5013653;28;19967;-77
2022/04/06 10:36:08;;;;;;;;;;;;;;;;;;4994742;28;20340;-77
2022/04/06 10:38:34;;;;;;;;;;;;;;;;;;5009963;28;20394;-77
2022/04/06 10:41:00;;;;;;;;;;;;;;;;;;5019795;28;19953;-77
2022/04/06 10:43:27;;;;;;;;;;;;;;;;;;5005269;28;19953;-77
2022/04/06 10:45:53;;;;;;;;;;;;;;;;;;5018115;28;20637;-77
2022/04/06 10:48:19;;;;;;;;;;;;;;;;;;5009426;28;19996;-77
2022/04/06 10:50:45;;;;;;;;;;;;;;;;;;5027733;28;19945;-77
2022/04/06 10:53:12;;;;;;;;;;;;;;;;;;4997465;28;19933;-78
2022/04/06 10:55:38;;;;;;;;;;;;;;;;;;4991193;28;19949;-76
2022/04/06 10:58:05;;;;;;;;;;;;;;;;;;5010030;28;20318;-77
2022/04/06 11:00:32;;;;;;;;;;;;;;;;;;5013038;28;20019;-81
2022/04/06 11:02:58;;;;;;;;;;;;;;;;;;5009656;28;19949;-80
2022/04/06 11:05:24;;;;;;;;;;;;;;;;;;5010265;28;19968;-80
2022/04/06 11:10:35;;;;;;;;;;;;;;;;;;5015584;28;20632;-79
2022/04/06 11:13:01;;;;;;;;;;;;;;;;;;5009842;28;19964;-78
2022/04/06 11:15:27;;;;;;;;;;;;;;;;;;4996593;28;19991;-79
2022/04/06 11:17:54;;;;;;;;;;;;;;;;;;4995410;28;20396;-76
2022/04/06 11:20:20;;;;;;;;;;;;;;;;;;4996408;28;19960;-76
2022/04/06 11:22:46;;;;;;;;;;;;;;;;;;5006293;28;19957;-76
2022/04/06 11:25:12;;;;;;;;;;;;;;;;;;5000415;28;20322;-76
2022/04/06 11:27:39;;;;;;;;;;;;;;;;;;4981624;28;20036;-76
2022/04/06 11:30:05;;;;;;;;;;;;;;;;;;4998527;28;19949;-77
2022/04/06 11:32:31;;;;;;;;;;;;;;;;;;4996458;28;20018;-76
2022/04/06 11:34:57;;;;;;;;;;;;;;;;;;5011167;28;19944;-77
2022/04/06 11:37:23;;;;;;;;;;;;;;;;;;4999239;28;19949;-77
2022/04/06 11:39:50;;;;;;;;;;;;;;;;;;5024401;28;20015;-77
2022/04/06 11:42:19;;;;;;;;;;;;;;;;;;5007272;28;20355;-77
2022/04/06 11:44:45;;;;;;;;;;;;;;;;;;5021682;28;20356;-77
2022/04/06 11:47:11;;;;;;;;;;;;;;;;;;5015044;28;19952;-77
2022/04/06 11:49:37;;;;;;;;;;;;;;;;;;4998013;28;19921;-77
2022/04/06 11:52:04;;;;;;;;;;;;;;;;;;5007739;28;20029;-77
2022/04/06 11:54:31;;;;;;;;;;;;;;;;;;5012791;28;20748;-77
2022/04/06 11:56:57;;;;;;;;;;;;;;;;;;5006076;28;19949;-77
2022/04/06 11:59:23;;;;;;;;;;;;;;;;;;4998125;28;19965;-77
2022/04/06 12:01:50;;;;;;;;;;;;;;;;;;5003538;28;19984;-77
2022/04/06 12:04:18;;;;;;;;;;;;;;;;;;5008396;28;20017;-76
2022/04/06 12:06:45;;;;;;;;;;;;;;;;;;5015620;28;19957;-77
2022/04/06 12:09:11;;;;;;;;;;;;;;;;;;5009890;28;19953;-76
2022/04/06 12:11:38;;;;;;;;;;;;;;;;;;5017846;28;19957;-77
2022/04/06 12:14:04;;;;;;;;;;;;;;;;;;5012974;28;19953;-75
2022/04/06 12:16:31;;;;;;;;;;;;;;;;;;5001465;28;19959;-76
2022/04/06 12:18:57;;;;;;;;;;;;;;;;;;4996447;28;20019;-77
2022/04/06 12:21:24;;;;;;;;;;;;;;;;;;4999101;28;19957;-77
2022/04/06 12:23:51;;;;;;;;;;;;;;;;;;5024481;28;19945;-77
2022/04/06 12:26:17;;;;;;;;;;;;;;;;;;5000220;28;19953;-77
2022/04/06 12:28:44;;;;;;;;;;;;;;;;;;5024867;28;19960;-78
2022/04/06 12:31:10;;;;;;;;;;;;;;;;;;5000780;28;19956;-79
2022/04/06 12:33:37;;;;;;;;;;;;;;;;;;5018911;28;19945;-78
2022/04/06 12:36:03;;;;;;;;;;;;;;;;;;5010646;28;19960;-77
2022/04/06 12:38:29;;;;;;;;;;;;;;;;;;5010652;28;19949;-77
2022/04/06 12:40:55;;;;;;;;;;;;;;;;;;4999747;28;19957;-77
2022/04/06 12:43:21;;;;;;;;;;;;;;;;;;5007769;28;19949;-78
2022/04/06 12:45:47;;;;;;;;;;;;;;;;;;5002653;28;20460;-78
2022/04/06 12:48:14;;;;;;;;;;;;;;;;;;5013715;28;19959;-78
2022/04/06 12:50:40;;;;;;;;;;;;;;;;;;4997737;28;20473;-78
2022/04/06 12:53:10;;;;;;;;;;;;;;;;;;5008852;28;19949;-77
2022/04/06 12:55:37;;;;;;;;;;;;;;;;;;5024330;28;20018;-78
2022/04/06 12:58:04;;;;;;;;;;;;;;;;;;5007459;28;19941;-78
2022/04/06 13:00:31;;;;;;;;;;;;;;;;;;5003541;28;20340;-78
2022/04/06 13:02:57;;;;;;;;;;;;;;;;;;5005451;28;19953;-78
2022/04/06 13:05:23;;;;;;;;;;;;;;;;;;5003123;28;20545;-78
2022/04/06 13:07:49;;;;;;;;;;;;;;;;;;5011134;28;19949;-78
2022/04/06 13:10:16;;;;;;;;;;;;;;;;;;5016895;28;20457;-77
2022/04/06 13:12:42;;;;;;;;;;;;;;;;;;5016536;28;19990;-78
2022/04/06 13:15:09;;;;;;;;;;;;;;;;;;5006219;28;20397;-77
2022/04/06 13:17:35;;;;;;;;;;;;;;;;;;4995318;28;20468;-78
2022/04/06 13:20:01;;;;;;;;;;;;;;;;;;4993538;28;20402;-78
2022/04/06 13:22:27;;;;;;;;;;;;;;;;;;5012038;28;19956;-78
2022/04/06 13:24:53;;;;;;;;;;;;;;;;;;5000915;28;20393;-78
2022/04/06 13:27:22;;;;;;;;;;;;;;;;;;4989742;28;19969;-80
2022/04/06 13:29:50;;;;;;;;;;;;;;;;;;5013668;28;19932;-78
2022/04/06 13:32:17;;;;;;;;;;;;;;;;;;5003150;28;19952;-78
2022/04/06 13:34:46;;;;;;;;;;;;;;;;;;4996336;28;19940;-78
2022/04/06 13:37:15;;;;;;;;;;;;;;;;;;5002407;28;19945;-79
2022/04/06 13:39:44;;;;;;;;;;;;;;;;;;5014944;28;19928;-79
2022/04/06 13:42:10;;;;;;;;;;;;;;;;;;4988509;28;20522;-79
2022/04/06 13:44:36;;;;;;;;;;;;;;;;;;5010296;28;19925;-78
2022/04/06 13:47:05;;;;;;;;;;;;;;;;;;5028847;28;19917;-79
2022/04/06 13:49:37;;;;;;;;;;;;;;;;;;5018274;28;20365;-79
2022/04/06 13:52:04;;;;;;;;;;;;;;;;;;5011874;28;19925;-77
2022/04/06 13:54:30;;;;;;;;;;;;;;;;;;5011671;28;20414;-78
2022/04/06 13:56:56;;;;;;;;;;;;;;;;;;4990884;28;20336;-78
2022/04/06 13:59:23;;;;;;;;;;;;;;;;;;5004509;28;20000;-78
2022/04/06 14:01:49;;;;;;;;;;;;;;;;;;5004085;28;20390;-79
2022/04/06 14:04:15;;;;;;;;;;;;;;;;;;5012355;28;20464;-78
2022/04/06 14:06:42;;;;;;;;;;;;;;;;;;5005993;28;20324;-78
2022/04/06 14:09:09;;;;;;;;;;;;;;;;;;5005386;28;19941;-78
2022/04/06 14:11:35;;;;;;;;;;;;;;;;;;5006504;28;19945;-78
2022/04/06 14:14:01;;;;;;;;;;;;;;;;;;5019659;28;20384;-77
2022/04/06 14:16:28;;;;;;;;;;;;;;;;;;5007595;28;19965;-78
2022/04/06 14:18:55;;;;;;;;;;;;;;;;;;5001941;28;20342;-78
2022/04/06 14:21:22;;;;;;;;;;;;;;;;;;4996189;28;19953;-79
2022/04/06 14:23:48;;;;;;;;;;;;;;;;;;5001937;28;19968;-78
2022/04/06 14:26:15;;;;;;;;;;;;;;;;;;4997688;28;19956;-79
2022/04/06 14:28:41;;;;;;;;;;;;;;;;;;5001449;28;20100;-77
2022/04/06 14:31:08;;;;;;;;;;;;;;;;;;4993661;28;19948;-78
2022/04/06 14:33:34;;;;;;;;;;;;;;;;;;5011980;28;19961;-77
2022/04/06 14:36:00;;;;;;;;;;;;;;;;;;5005523;28;19965;-77
2022/04/06 14:38:27;;;;;;;;;;;;;;;;;;5011587;28;19949;-77
2022/04/06 14:40:53;;;;;;;;;;;;;;;;;;5003566;28;19988;-81
2022/04/06 14:43:19;;;;;;;;;;;;;;;;;;5015137;28;19971;-81
2022/04/06 14:45:46;;;;;;;;;;;;;;;;;;5016739;28;20045;-81
2022/04/06 14:48:12;;;;;;;;;;;;;;;;;;5003513;28;20011;-81
2022/04/06 14:50:39;;;;;;;;;;;;;;;;;;5007763;28;19952;-81
2022/04/06 14:53:05;;;;;;;;;;;;;;;;;;4991935;28;19949;-79
2022/04/06 14:55:31;;;;;;;;;;;;;;;;;;5008228;28;19955;-82
2022/04/06 14:57:58;;;;;;;;;;;;;;;;;;5014077;28;19951;-81
2022/04/06 15:00:26;;;;;;;;;;;;;;;;;;5016194;28;20010;-81
2022/04/06 15:02:53;;;;;;;;;;;;;;;;;;5025312;28;19954;-81
2022/04/06 15:05:19;;;;;;;;;;;;;;;;;;5004454;28;20428;-80
2022/04/06 15:07:45;;;;;;;;;;;;;;;;;;5009020;28;20044;-80
2022/04/06 15:10:11;;;;;;;;;;;;;;;;;;5016092;28;20403;-80
2022/04/06 15:12:37;;;;;;;;;;;;;;;;;;4997102;28;19956;-80
2022/04/06 15:15:04;;;;;;;;;;;;;;;;;;5005615;28;19953;-82
2022/04/06 15:17:30;;;;;;;;;;;;;;;;;;4990566;28;19957;-81
2022/04/06 15:19:56;;;;;;;;;;;;;;;;;;5007170;28;19944;-82
2022/04/06 15:22:22;;;;;;;;;;;;;;;;;;5023642;28;19949;-82
2022/04/06 15:24:48;;;;;;;;;;;;;;;;;;5016418;28;19968;-82
2022/04/06 15:27:14;;;;;;;;;;;;;;;;;;5003780;28;19960;-81
2022/04/06 15:29:41;;;;;;;;;;;;;;;;;;5003948;28;19927;-83
2022/04/06 15:32:07;;;;;;;;;;;;;;;;;;5014259;28;19953;-81
2022/04/06 15:37:26;;;;;;;;;;;;;;;;;;5011711;28;19953;-82
2022/04/06 15:39:53;;;;;;;;;;;;;;;;;;5005086;28;20442;-82
2022/04/06 15:42:24;;;;;;;;;;;;;;;;;;4992467;28;19984;-81
2022/04/06 15:44:50;;;;;;;;;;;;;;;;;;5030565;28;19968;-82
2022/04/06 15:47:17;;;;;;;;;;;;;;;;;;5006375;28;19961;-82
2022/04/06 15:49:43;;;;;;;;;;;;;;;;;;5008824;28;20476;-82
2022/04/06 15:52:09;;;;;;;;;;;;;;;;;;4999464;28;20409;-81
2022/04/06 15:54:35;;;;;;;;;;;;;;;;;;5001753;28;20011;-81
2022/04/06 15:57:02;;;;;;;;;;;;;;;;;;5005608;28;20478;-81
2022/04/06 15:59:28;;;;;;;;;;;;;;;;;;4999243;28;19953;-81
2022/04/06 16:01:54;;;;;;;;;;;;;;;;;;5006546;28;19953;-81
2022/04/06 16:04:20;;;;;;;;;;;;;;;;;;5012703;28;19952;-81
2022/04/06 16:06:46;;;;;;;;;;;;;;;;;;5006354;28;19960;-81
2022/04/06 16:09:13;;;;;;;;;;;;;;;;;;4997697;28;19967;-80
2022/04/06 16:11:40;;;;;;;;;;;;;;;;;;4990620;28;19953;-81
2022/04/06 16:14:06;;;;;;;;;;;;;;;;;;4995226;28;19949;-79
2022/04/06 16:16:32;;;;;;;;;;;;;;;;;;5000757;28;19956;-81
2022/04/06 16:18:58;;;;;;;;;;;;;;;;;;4996759;28;19961;-81
2022/04/06 16:21:25;;;;;;;;;;;;;;;;;;4990750;28;20043;-80
2022/04/06 16:23:52;;;;;;;;;;;;;;;;;;5010212;28;19917;-79
2022/04/06 16:26:18;;;;;;;;;;;;;;;;;;5002053;28;20724;-80
2022/04/06 16:28:47;;;;;;;;;;;;;;;;;;5001417;28;19965;-81
2022/04/06 16:31:14;;;;;;;;;;;;;;;;;;4998399;28;19925;-80
2022/04/06 16:33:41;;;;;;;;;;;;;;;;;;4999720;28;19944;-81
2022/04/06 16:36:09;;;;;;;;;;;;;;;;;;5008008;28;19921;-83
2022/04/06 16:38:35;;;;;;;;;;;;;;;;;;4997122;28;19964;-80
2022/04/06 16:41:02;;;;;;;;;;;;;;;;;;5000331;28;19955;-81
2022/04/06 16:43:28;;;;;;;;;;;;;;;;;;5015738;28;20052;-81
2022/04/06 16:45:54;;;;;;;;;;;;;;;;;;4998737;28;19949;-80
2022/04/06 16:48:20;;;;;;;;;;;;;;;;;;5002093;28;20634;-81
2022/04/06 16:53:31;;;;;;;;;;;;;;;;;;5025493;28;20358;-83
2022/04/06 16:55:58;;;;;;;;;;;;;;;;;;5016902;28;19995;-88
2022/04/06 16:58:24;;;;;;;;;;;;;;;;;;4997751;28;19914;-83
2022/04/06 17:00:50;;;;;;;;;;;;;;;;;;5010743;28;19983;-82
2022/04/06 17:03:16;;;;;;;;;;;;;;;;;;5005734;28;19957;-82
2022/04/06 17:05:42;;;;;;;;;;;;;;;;;;4988252;28;19984;-86
2022/04/06 17:08:12;;;;;;;;;;;;;;;;;;5000703;28;19989;-80